sensor_id;sensor_type;location;lat;lon;timestamp;pressure;altitude;pressure_sealevel;temperature;humidity
10060;BME280;5069;49.306;8.636;2022-08-30T00:02:52;100638.81;;;21.88;49.88
10060;BME280;5069;49.306;8.636;2022-08-30T00:05:54;100643.91;;;22.03;48.59
10060;BME280;5069;49.306;8.636;2022-08-30T00:08:56;100639.53;;;22.13;48.96
10060;BME280;5069;49.306;8.636;2022-08-30T00:11:59;100634.63;;;22.07;49.08
10060;BME280;5069;49.306;8.636;2022-08-30T00:15:01;100633.19;;;22.03;49.14
10060;BME280;5069;49.306;8.636;2022-08-30T00:18:02;100634.72;;;21.95;49.98
10060;BME280;5069;49.306;8.636;2022-08-30T00:21:04;100630.44;;;21.92;49.81
10060;BME280;5069;49.306;8.636;2022-08-30T00:24:06;100633.22;;;21.91;49.43
10060;BME280;5069;49.306;8.636;2022-08-30T00:27:08;100630.03;;;21.85;49.75
10060;BME280;5069;49.306;8.636;2022-08-30T00:30:11;100635.47;;;21.73;51.07
10060;BME280;5069;49.306;8.636;2022-08-30T00:33:13;100641.22;;;21.68;51.68
10060;BME280;5069;49.306;8.636;2022-08-30T00:36:15;100640.66;;;21.52;52.46
10060;BME280;5069;49.306;8.636;2022-08-30T00:39:17;100640.81;;;21.38;52.55
10060;BME280;5069;49.306;8.636;2022-08-30T00:42:19;100639.25;;;21.35;53.21
10060;BME280;5069;49.306;8.636;2022-08-30T00:45:26;100642.47;;;21.28;53.23
10060;BME280;5069;49.306;8.636;2022-08-30T00:48:28;100636.34;;;21.26;53.43
10060;BME280;5069;49.306;8.636;2022-08-30T00:51:30;100640.25;;;21.22;54.52
10060;BME280;5069;49.306;8.636;2022-08-30T00:54:34;100644.13;;;21.18;54.04
10060;BME280;5069;49.306;8.636;2022-08-30T00:57:38;100643.69;;;21.11;54.97
10060;BME280;5069;49.306;8.636;2022-08-30T01:00:40;100651.63;;;21.13;55.00
10060;BME280;5069;49.306;8.636;2022-08-30T01:03:42;100657.22;;;20.97;54.51
10060;BME280;5069;49.306;8.636;2022-08-30T01:06:44;100654.50;;;21.10;54.36
10060;BME280;5069;49.306;8.636;2022-08-30T01:09:46;100658.31;;;20.94;54.51
10060;BME280;5069;49.306;8.636;2022-08-30T01:12:48;100656.09;;;20.88;54.75
10060;BME280;5069;49.306;8.636;2022-08-30T01:15:49;100655.47;;;20.72;54.83
10060;BME280;5069;49.306;8.636;2022-08-30T01:18:55;100654.94;;;20.67;55.08
10060;BME280;5069;49.306;8.636;2022-08-30T01:22:03;100662.66;;;20.72;56.02
10060;BME280;5069;49.306;8.636;2022-08-30T01:25:07;100654.28;;;20.76;56.45
10060;BME280;5069;49.306;8.636;2022-08-30T01:28:13;100666.47;;;20.80;55.64
10060;BME280;5069;49.306;8.636;2022-08-30T01:31:16;100670.16;;;20.67;55.43
10060;BME280;5069;49.306;8.636;2022-08-30T01:34:18;100656.69;;;20.55;55.62
10060;BME280;5069;49.306;8.636;2022-08-30T01:37:30;100665.34;;;20.59;56.12
10060;BME280;5069;49.306;8.636;2022-08-30T01:40:32;100657.97;;;20.50;56.32
10060;BME280;5069;49.306;8.636;2022-08-30T01:43:34;100651.75;;;20.37;57.27
10060;BME280;5069;49.306;8.636;2022-08-30T01:46:43;100654.63;;;20.34;57.34
10060;BME280;5069;49.306;8.636;2022-08-30T01:49:46;100644.25;;;20.42;57.28
10060;BME280;5069;49.306;8.636;2022-08-30T01:52:48;100645.88;;;20.44;56.90
10060;BME280;5069;49.306;8.636;2022-08-30T01:55:49;100656.25;;;20.49;56.71
10060;BME280;5069;49.306;8.636;2022-08-30T01:58:51;100650.13;;;20.47;57.56
10060;BME280;5069;49.306;8.636;2022-08-30T02:01:53;100652.72;;;20.36;58.17
10060;BME280;5069;49.306;8.636;2022-08-30T02:04:55;100660.25;;;20.16;58.98
10060;BME280;5069;49.306;8.636;2022-08-30T02:07:59;100659.63;;;20.26;59.13
10060;BME280;5069;49.306;8.636;2022-08-30T02:11:01;100653.19;;;20.28;59.41
10060;BME280;5069;49.306;8.636;2022-08-30T02:14:03;100640.50;;;20.32;59.00
10060;BME280;5069;49.306;8.636;2022-08-30T02:17:07;100636.88;;;20.33;59.00
10060;BME280;5069;49.306;8.636;2022-08-30T02:20:09;100638.22;;;20.26;58.85
10060;BME280;5069;49.306;8.636;2022-08-30T02:23:11;100638.66;;;20.19;60.38
10060;BME280;5069;49.306;8.636;2022-08-30T02:26:13;100644.09;;;20.05;61.07
10060;BME280;5069;49.306;8.636;2022-08-30T02:29:14;100636.19;;;20.04;60.24
10060;BME280;5069;49.306;8.636;2022-08-30T02:32:16;100637.13;;;19.90;61.27
10060;BME280;5069;49.306;8.636;2022-08-30T02:35:17;100641.53;;;19.52;63.11
10060;BME280;5069;49.306;8.636;2022-08-30T02:38:19;100634.06;;;19.30;64.17
10060;BME280;5069;49.306;8.636;2022-08-30T02:41:20;100631.88;;;19.22;63.95
10060;BME280;5069;49.306;8.636;2022-08-30T02:44:23;100641.44;;;19.12;63.72
10060;BME280;5069;49.306;8.636;2022-08-30T02:47:25;100639.50;;;19.28;61.69
10060;BME280;5069;49.306;8.636;2022-08-30T02:50:26;100643.25;;;19.12;62.87
10060;BME280;5069;49.306;8.636;2022-08-30T02:53:28;100641.00;;;19.06;63.46
10060;BME280;5069;49.306;8.636;2022-08-30T02:56:30;100638.78;;;19.12;63.72
10060;BME280;5069;49.306;8.636;2022-08-30T02:59:32;100618.50;;;19.22;63.62
10060;BME280;5069;49.306;8.636;2022-08-30T03:02:33;100619.59;;;19.32;62.90
10060;BME280;5069;49.306;8.636;2022-08-30T03:05:35;100628.41;;;19.34;62.09
10060;BME280;5069;49.306;8.636;2022-08-30T03:08:40;100620.56;;;19.46;62.89
10060;BME280;5069;49.306;8.636;2022-08-30T03:11:41;100626.66;;;19.48;61.92
10060;BME280;5069;49.306;8.636;2022-08-30T03:14:45;100628.19;;;19.37;62.97
10060;BME280;5069;49.306;8.636;2022-08-30T03:17:46;100625.81;;;19.33;63.38
10060;BME280;5069;49.306;8.636;2022-08-30T03:20:48;100639.63;;;19.39;63.08
10060;BME280;5069;49.306;8.636;2022-08-30T03:23:55;100626.66;;;19.33;63.15
10060;BME280;5069;49.306;8.636;2022-08-30T03:26:56;100624.94;;;19.32;63.82
10060;BME280;5069;49.306;8.636;2022-08-30T03:29:58;100628.19;;;19.37;63.42
10060;BME280;5069;49.306;8.636;2022-08-30T03:33:00;100619.00;;;19.42;64.20
10060;BME280;5069;49.306;8.636;2022-08-30T03:36:02;100617.06;;;19.44;64.04
10060;BME280;5069;49.306;8.636;2022-08-30T03:39:05;100621.78;;;19.40;64.70
10060;BME280;5069;49.306;8.636;2022-08-30T03:42:08;100625.25;;;19.28;64.75
10060;BME280;5069;49.306;8.636;2022-08-30T03:45:12;100626.03;;;19.30;65.62
10060;BME280;5069;49.306;8.636;2022-08-30T03:48:14;100622.38;;;19.31;65.41
10060;BME280;5069;49.306;8.636;2022-08-30T03:51:17;100624.41;;;19.27;65.11
10060;BME280;5069;49.306;8.636;2022-08-30T03:54:18;100633.34;;;19.40;64.12
10060;BME280;5069;49.306;8.636;2022-08-30T03:57:19;100619.59;;;19.47;64.80
10060;BME280;5069;49.306;8.636;2022-08-30T04:00:25;100623.91;;;19.35;64.70
10060;BME280;5069;49.306;8.636;2022-08-30T04:03:26;100622.69;;;19.26;64.48
10060;BME280;5069;49.306;8.636;2022-08-30T04:06:27;100630.91;;;19.23;65.08
10060;BME280;5069;49.306;8.636;2022-08-30T04:09:29;100625.25;;;19.28;65.22
10060;BME280;5069;49.306;8.636;2022-08-30T04:12:31;100634.69;;;19.33;63.09
10060;BME280;5069;49.306;8.636;2022-08-30T04:15:33;100630.06;;;19.23;64.90
10060;BME280;5069;49.306;8.636;2022-08-30T04:18:34;100626.53;;;19.22;65.24
10060;BME280;5069;49.306;8.636;2022-08-30T04:21:36;100626.06;;;19.16;65.69
10060;BME280;5069;49.306;8.636;2022-08-30T04:24:43;100630.31;;;19.06;66.12
10060;BME280;5069;49.306;8.636;2022-08-30T04:27:45;100641.69;;;18.95;66.85
10060;BME280;5069;49.306;8.636;2022-08-30T04:30:46;100638.25;;;18.93;66.88
10060;BME280;5069;49.306;8.636;2022-08-30T04:33:48;100641.00;;;18.91;67.05
10060;BME280;5069;49.306;8.636;2022-08-30T04:36:50;100644.56;;;18.78;67.50
10060;BME280;5069;49.306;8.636;2022-08-30T04:39:55;100639.78;;;18.69;68.70
10060;BME280;5069;49.306;8.636;2022-08-30T04:42:57;100638.38;;;18.63;68.22
10060;BME280;5069;49.306;8.636;2022-08-30T04:46:05;100647.63;;;18.57;69.24
10060;BME280;5069;49.306;8.636;2022-08-30T04:49:07;100642.63;;;18.51;69.63
10060;BME280;5069;49.306;8.636;2022-08-30T04:52:08;100643.69;;;18.35;70.65
10060;BME280;5069;49.306;8.636;2022-08-30T04:55:12;100651.94;;;18.02;70.47
10060;BME280;5069;49.306;8.636;2022-08-30T04:58:20;100651.06;;;18.01;70.25
10060;BME280;5069;49.306;8.636;2022-08-30T05:01:25;100655.59;;;18.15;68.82
10060;BME280;5069;49.306;8.636;2022-08-30T05:04:27;100650.53;;;18.25;68.61
10060;BME280;5069;49.306;8.636;2022-08-30T05:07:30;100655.78;;;18.26;69.40
10060;BME280;5069;49.306;8.636;2022-08-30T05:10:32;100656.25;;;18.18;69.06
10060;BME280;5069;49.306;8.636;2022-08-30T05:13:35;100653.66;;;18.17;69.85
10060;BME280;5069;49.306;8.636;2022-08-30T05:16:37;100657.13;;;18.19;70.16
10060;BME280;5069;49.306;8.636;2022-08-30T05:19:39;100662.16;;;18.24;69.53
10060;BME280;5069;49.306;8.636;2022-08-30T05:22:42;100666.47;;;18.26;69.57
10060;BME280;5069;49.306;8.636;2022-08-30T05:25:54;100666.25;;;18.15;70.15
10060;BME280;5069;49.306;8.636;2022-08-30T05:28:56;100667.88;;;18.03;71.31
10060;BME280;5069;49.306;8.636;2022-08-30T05:31:58;100685.53;;;18.20;70.81
10060;BME280;5069;49.306;8.636;2022-08-30T05:34:59;100676.94;;;18.29;70.35
10060;BME280;5069;49.306;8.636;2022-08-30T05:38:01;100680.38;;;18.45;71.11
10060;BME280;5069;49.306;8.636;2022-08-30T05:41:03;100679.25;;;18.49;69.50
10060;BME280;5069;49.306;8.636;2022-08-30T05:44:11;100687.59;;;18.59;68.26
10060;BME280;5069;49.306;8.636;2022-08-30T05:47:12;100700.25;;;18.70;66.73
10060;BME280;5069;49.306;8.636;2022-08-30T05:50:14;100695.69;;;18.86;66.54
10060;BME280;5069;49.306;8.636;2022-08-30T05:53:15;100691.41;;;18.83;65.27
10060;BME280;5069;49.306;8.636;2022-08-30T05:56:20;100698.09;;;18.90;64.36
10060;BME280;5069;49.306;8.636;2022-08-30T05:59:25;100693.19;;;18.97;64.52
10060;BME280;5069;49.306;8.636;2022-08-30T06:02:27;100686.19;;;19.09;65.27
10060;BME280;5069;49.306;8.636;2022-08-30T06:05:28;100681.78;;;19.22;63.78
10060;BME280;5069;49.306;8.636;2022-08-30T06:08:33;100680.75;;;19.24;63.78
10060;BME280;5069;49.306;8.636;2022-08-30T06:11:36;100675.19;;;19.27;63.46
10060;BME280;5069;49.306;8.636;2022-08-30T06:14:37;100667.00;;;19.30;63.02
10060;BME280;5069;49.306;8.636;2022-08-30T06:17:39;100670.63;;;19.15;63.11
10060;BME280;5069;49.306;8.636;2022-08-30T06:20:42;100673.84;;;19.20;63.44
10060;BME280;5069;49.306;8.636;2022-08-30T06:23:43;100676.19;;;19.12;62.51
10060;BME280;5069;49.306;8.636;2022-08-30T06:26:46;100671.66;;;19.27;61.45
10060;BME280;5069;49.306;8.636;2022-08-30T06:29:50;100678.63;;;19.29;60.62
10060;BME280;5069;49.306;8.636;2022-08-30T06:32:52;100676.19;;;19.12;60.91
10060;BME280;5069;49.306;8.636;2022-08-30T06:35:53;100682.28;;;19.14;60.56
10060;BME280;5069;49.306;8.636;2022-08-30T06:39:00;100674.31;;;19.27;60.22
10060;BME280;5069;49.306;8.636;2022-08-30T06:42:01;100679.59;;;19.55;59.05
10060;BME280;5069;49.306;8.636;2022-08-30T06:45:06;100682.84;;;19.60;59.47
10060;BME280;5069;49.306;8.636;2022-08-30T06:48:11;100677.75;;;19.83;58.80
10060;BME280;5069;49.306;8.636;2022-08-30T06:51:13;100673.34;;;20.08;58.34
10060;BME280;5069;49.306;8.636;2022-08-30T06:54:15;100671.19;;;20.13;58.05
10060;BME280;5069;49.306;8.636;2022-08-30T06:57:17;100672.94;;;20.27;57.11
10060;BME280;5069;49.306;8.636;2022-08-30T07:00:18;100678.38;;;20.26;57.63
10060;BME280;5069;49.306;8.636;2022-08-30T07:03:20;100679.81;;;20.44;56.91
10060;BME280;5069;49.306;8.636;2022-08-30T07:06:23;100686.00;;;20.57;57.53
10060;BME280;5069;49.306;8.636;2022-08-30T07:09:25;100687.50;;;20.74;57.35
10060;BME280;5069;49.306;8.636;2022-08-30T07:12:26;100685.56;;;20.88;56.89
10060;BME280;5069;49.306;8.636;2022-08-30T07:15:28;100684.00;;;21.22;56.04
10060;BME280;5069;49.306;8.636;2022-08-30T07:18:34;100678.16;;;21.41;55.14
10060;BME280;5069;49.306;8.636;2022-08-30T07:21:50;100688.28;;;21.72;53.93
10060;BME280;5069;49.306;8.636;2022-08-30T07:24:52;100678.59;;;21.94;53.47
10060;BME280;5069;49.306;8.636;2022-08-30T07:27:53;100689.81;;;22.11;53.01
10060;BME280;5069;49.306;8.636;2022-08-30T07:30:56;100693.38;;;22.23;52.55
10060;BME280;5069;49.306;8.636;2022-08-30T07:33:57;100694.25;;;22.35;52.35
10060;BME280;5069;49.306;8.636;2022-08-30T07:36:59;100694.28;;;22.46;52.30
10060;BME280;5069;49.306;8.636;2022-08-30T07:40:01;100701.63;;;22.66;51.33
10060;BME280;5069;49.306;8.636;2022-08-30T07:43:03;100699.59;;;22.81;51.13
10060;BME280;5069;49.306;8.636;2022-08-30T07:46:06;100696.41;;;22.98;51.39
10060;BME280;5069;49.306;8.636;2022-08-30T07:49:08;100688.72;;;22.93;49.87
10060;BME280;5069;49.306;8.636;2022-08-30T07:52:11;100689.66;;;22.70;50.46
10060;BME280;5069;49.306;8.636;2022-08-30T07:55:13;100686.59;;;22.63;51.54
10060;BME280;5069;49.306;8.636;2022-08-30T07:58:14;100692.56;;;22.56;51.85
10060;BME280;5069;49.306;8.636;2022-08-30T08:01:17;100691.69;;;22.33;51.85
10060;BME280;5069;49.306;8.636;2022-08-30T08:04:20;100693.41;;;22.34;51.88
10060;BME280;5069;49.306;8.636;2022-08-30T08:07:21;100692.06;;;22.51;52.13
10060;BME280;5069;49.306;8.636;2022-08-30T08:10:23;100699.16;;;22.52;51.63
10060;BME280;5069;49.306;8.636;2022-08-30T08:13:24;100692.94;;;22.62;51.62
10060;BME280;5069;49.306;8.636;2022-08-30T08:16:34;100690.25;;;22.62;51.65
10060;BME280;5069;49.306;8.636;2022-08-30T08:19:36;100692.75;;;22.77;51.70
10060;BME280;5069;49.306;8.636;2022-08-30T08:22:37;100689.94;;;23.00;50.99
10060;BME280;5069;49.306;8.636;2022-08-30T08:25:40;100689.53;;;23.16;51.57
10060;BME280;5069;49.306;8.636;2022-08-30T08:28:42;100692.09;;;23.29;50.62
10060;BME280;5069;49.306;8.636;2022-08-30T08:31:46;100680.97;;;23.22;50.04
10060;BME280;5069;49.306;8.636;2022-08-30T08:34:48;100689.06;;;23.22;50.86
10060;BME280;5069;49.306;8.636;2022-08-30T08:37:49;100683.16;;;23.28;51.03
10060;BME280;5069;49.306;8.636;2022-08-30T08:43:52;100672.03;;;23.33;49.72
10060;BME280;5069;49.306;8.636;2022-08-30T08:47:02;100673.84;;;23.32;50.34
10060;BME280;5069;49.306;8.636;2022-08-30T08:50:11;100671.66;;;23.37;50.12
10060;BME280;5069;49.306;8.636;2022-08-30T08:53:23;100672.84;;;23.44;49.99
10060;BME280;5069;49.306;8.636;2022-08-30T08:56:47;100667.47;;;23.56;49.67
10060;BME280;5069;49.306;8.636;2022-08-30T08:59:49;100671.25;;;23.85;50.05
10060;BME280;5069;49.306;8.636;2022-08-30T09:03:00;100672.34;;;24.14;48.02
10060;BME280;5069;49.306;8.636;2022-08-30T09:06:10;100665.84;;;24.38;48.61
10060;BME280;5069;49.306;8.636;2022-08-30T09:09:25;100672.66;;;24.21;48.40
10060;BME280;5069;49.306;8.636;2022-08-30T09:12:28;100665.25;;;24.13;48.50
10060;BME280;5069;49.306;8.636;2022-08-30T09:15:32;100667.44;;;24.19;48.59
10060;BME280;5069;49.306;8.636;2022-08-30T09:18:45;100664.38;;;24.34;48.28
10060;BME280;5069;49.306;8.636;2022-08-30T09:22:02;100652.69;;;24.44;47.36
10060;BME280;5069;49.306;8.636;2022-08-30T09:25:19;100653.72;;;24.53;47.60
10060;BME280;5069;49.306;8.636;2022-08-30T09:28:42;100658.19;;;24.73;47.77
10060;BME280;5069;49.306;8.636;2022-08-30T09:31:50;100655.16;;;24.87;46.66
10060;BME280;5069;49.306;8.636;2022-08-30T09:35:19;100643.44;;;25.07;46.33
10060;BME280;5069;49.306;8.636;2022-08-30T09:38:30;100645.63;;;25.33;46.27
10060;BME280;5069;49.306;8.636;2022-08-30T09:41:39;100647.13;;;25.56;46.35
10060;BME280;5069;49.306;8.636;2022-08-30T09:44:41;100639.16;;;25.83;45.40
10060;BME280;5069;49.306;8.636;2022-08-30T09:47:43;100639.66;;;26.16;44.63
10060;BME280;5069;49.306;8.636;2022-08-30T09:50:44;100627.94;;;26.44;43.64
10060;BME280;5069;49.306;8.636;2022-08-30T09:54:04;100635.97;;;26.36;42.49
10060;BME280;5069;49.306;8.636;2022-08-30T09:57:31;100637.53;;;26.29;43.30
10060;BME280;5069;49.306;8.636;2022-08-30T10:00:43;100633.00;;;26.29;42.41
10060;BME280;5069;49.306;8.636;2022-08-30T10:04:01;100621.75;;;26.15;42.88
10060;BME280;5069;49.306;8.636;2022-08-30T10:07:13;100616.91;;;26.28;43.78
10060;BME280;5069;49.306;8.636;2022-08-30T10:10:30;100619.25;;;26.87;43.01
10060;BME280;5069;49.306;8.636;2022-08-30T10:20:57;100601.03;;;27.52;40.92
10060;BME280;5069;49.306;8.636;2022-08-30T10:24:01;100592.53;;;27.65;39.67
10060;BME280;5069;49.306;8.636;2022-08-30T10:27:35;100594.16;;;27.58;39.52
10060;BME280;5069;49.306;8.636;2022-08-30T10:30:44;100590.03;;;27.71;38.99
10060;BME280;5069;49.306;8.636;2022-08-30T10:33:51;100579.72;;;27.75;38.71
10060;BME280;5069;49.306;8.636;2022-08-30T10:37:06;100581.50;;;27.84;39.00
10060;BME280;5069;49.306;8.636;2022-08-30T10:40:16;100577.94;;;28.09;38.83
10060;BME280;5069;49.306;8.636;2022-08-30T10:50:13;100575.84;;;28.55;36.98
10060;BME280;5069;49.306;8.636;2022-08-30T10:53:31;100576.91;;;28.62;36.33
10060;BME280;5069;49.306;8.636;2022-08-30T10:56:40;100579.09;;;28.58;37.05
10060;BME280;5069;49.306;8.636;2022-08-30T11:00:09;100571.06;;;28.49;36.68
10060;BME280;5069;49.306;8.636;2022-08-30T11:06:41;100563.00;;;28.57;36.46
10060;BME280;5069;49.306;8.636;2022-08-30T11:13:27;100561.09;;;28.91;35.88
10060;BME280;5069;49.306;8.636;2022-08-30T11:16:36;100557.38;;;28.92;36.45
10060;BME280;5069;49.306;8.636;2022-08-30T11:19:39;100555.03;;;29.05;34.92
10060;BME280;5069;49.306;8.636;2022-08-30T11:29:47;100554.84;;;28.57;37.14
10060;BME280;5069;49.306;8.636;2022-08-30T11:33:04;100553.13;;;28.48;36.60
10060;BME280;5069;49.306;8.636;2022-08-30T11:39:53;100553.13;;;28.48;37.05
10060;BME280;5069;49.306;8.636;2022-08-30T11:42:55;100555.38;;;28.60;37.25
10060;BME280;5069;49.306;8.636;2022-08-30T11:46:17;100549.00;;;28.77;36.91
10060;BME280;5069;49.306;8.636;2022-08-30T11:52:42;100545.78;;;29.32;36.24
10060;BME280;5069;49.306;8.636;2022-08-30T11:56:15;100551.41;;;29.39;35.78
10060;BME280;5069;49.306;8.636;2022-08-30T11:59:36;100547.63;;;29.32;35.98
10060;BME280;5069;49.306;8.636;2022-08-30T12:06:06;100540.84;;;29.84;35.84
10060;BME280;5069;49.306;8.636;2022-08-30T12:09:10;100546.28;;;29.84;34.92
10060;BME280;5069;49.306;8.636;2022-08-30T12:16:01;100535.72;;;29.81;35.56
10060;BME280;5069;49.306;8.636;2022-08-30T12:19:18;100539.47;;;29.80;35.14
10060;BME280;5069;49.306;8.636;2022-08-30T12:22:21;100531.31;;;30.13;34.85
10060;BME280;5069;49.306;8.636;2022-08-30T12:25:31;100522.25;;;30.20;34.77
10060;BME280;5069;49.306;8.636;2022-08-30T12:28:33;100530.19;;;30.38;35.14
10060;BME280;5069;49.306;8.636;2022-08-30T12:35:01;100527.75;;;30.04;34.62
10060;BME280;5069;49.306;8.636;2022-08-30T12:38:06;100520.38;;;30.21;34.09
10060;BME280;5069;49.306;8.636;2022-08-30T12:41:18;100523.03;;;30.37;35.18
10060;BME280;5069;49.306;8.636;2022-08-30T12:44:26;100513.38;;;30.73;35.13
10060;BME280;5069;49.306;8.636;2022-08-30T12:47:33;100509.88;;;30.88;34.61
10060;BME280;5069;49.306;8.636;2022-08-30T12:50:52;100506.41;;;31.02;33.44
10060;BME280;5069;49.306;8.636;2022-08-30T12:54:02;100496.13;;;30.58;34.08
10060;BME280;5069;49.306;8.636;2022-08-30T12:57:05;100497.53;;;30.77;33.71
10060;BME280;5069;49.306;8.636;2022-08-30T13:00:39;100484.00;;;30.92;34.33
10060;BME280;5069;49.306;8.636;2022-08-30T13:03:41;100488.09;;;30.88;34.18
10060;BME280;5069;49.306;8.636;2022-08-30T13:10:12;100489.50;;;31.14;33.04
10060;BME280;5069;49.306;8.636;2022-08-30T13:13:27;100482.59;;;31.04;32.91
10060;BME280;5069;49.306;8.636;2022-08-30T13:16:36;100479.03;;;30.95;32.89
10060;BME280;5069;49.306;8.636;2022-08-30T13:19:56;100479.63;;;30.83;33.97
10060;BME280;5069;49.306;8.636;2022-08-30T13:23:06;100473.13;;;30.92;33.76
10060;BME280;5069;49.306;8.636;2022-08-30T13:26:09;100466.06;;;31.05;33.40
10060;BME280;5069;49.306;8.636;2022-08-30T13:29:16;100451.09;;;30.78;33.61
10060;BME280;5069;49.306;8.636;2022-08-30T13:32:19;100450.53;;;31.14;33.95
10060;BME280;5069;49.306;8.636;2022-08-30T13:35:21;100460.44;;;31.44;33.17
10060;BME280;5069;49.306;8.636;2022-08-30T13:38:22;100455.38;;;31.41;33.08
10060;BME280;5069;49.306;8.636;2022-08-30T13:41:24;100456.06;;;31.43;32.77
10060;BME280;5069;49.306;8.636;2022-08-30T13:44:30;100439.56;;;31.59;33.28
10060;BME280;5069;49.306;8.636;2022-08-30T13:47:32;100450.78;;;31.56;32.22
10060;BME280;5069;49.306;8.636;2022-08-30T13:50:35;100440.06;;;31.40;32.79
10060;BME280;5069;49.306;8.636;2022-08-30T13:53:37;100445.16;;;31.43;32.84
10060;BME280;5069;49.306;8.636;2022-08-30T13:56:55;100443.63;;;31.26;32.00
10060;BME280;5069;49.306;8.636;2022-08-30T13:59:57;100433.28;;;31.36;32.60
10060;BME280;5069;49.306;8.636;2022-08-30T14:03:00;100433.53;;;31.49;32.95
10060;BME280;5069;49.306;8.636;2022-08-30T14:06:04;100426.66;;;31.53;32.93
10060;BME280;5069;49.306;8.636;2022-08-30T14:09:25;100425.13;;;31.88;32.55
10060;BME280;5069;49.306;8.636;2022-08-30T14:12:27;100421.16;;;31.91;31.99
10060;BME280;5069;49.306;8.636;2022-08-30T14:15:50;100417.56;;;32.05;32.18
10060;BME280;5069;49.306;8.636;2022-08-30T14:19:13;100412.47;;;32.02;31.63
10060;BME280;5069;49.306;8.636;2022-08-30T14:22:16;100409.22;;;32.07;31.47
10060;BME280;5069;49.306;8.636;2022-08-30T14:25:20;100401.97;;;32.28;31.78
10060;BME280;5069;49.306;8.636;2022-08-30T14:28:21;100398.75;;;32.10;31.63
10060;BME280;5069;49.306;8.636;2022-08-30T14:31:24;100389.19;;;31.85;31.80
10060;BME280;5069;49.306;8.636;2022-08-30T14:34:26;100388.16;;;31.71;31.58
10060;BME280;5069;49.306;8.636;2022-08-30T14:37:27;100383.28;;;31.81;32.75
10060;BME280;5069;49.306;8.636;2022-08-30T14:40:29;100378.41;;;31.77;31.91
10060;BME280;5069;49.306;8.636;2022-08-30T14:43:32;100381.47;;;31.74;31.72
10060;BME280;5069;49.306;8.636;2022-08-30T14:46:33;100375.25;;;31.50;31.89
10060;BME280;5069;49.306;8.636;2022-08-30T14:49:35;100377.19;;;31.65;31.88
10060;BME280;5069;49.306;8.636;2022-08-30T14:52:37;100368.13;;;31.79;32.08
10060;BME280;5069;49.306;8.636;2022-08-30T14:55:39;100369.75;;;31.88;31.70
10060;BME280;5069;49.306;8.636;2022-08-30T14:58:41;100366.53;;;31.84;31.82
10060;BME280;5069;49.306;8.636;2022-08-30T15:01:43;100363.41;;;32.02;30.82
10060;BME280;5069;49.306;8.636;2022-08-30T15:04:45;100356.94;;;32.18;31.43
10060;BME280;5069;49.306;8.636;2022-08-30T15:07:50;100363.25;;;31.89;30.99
10060;BME280;5069;49.306;8.636;2022-08-30T15:10:53;100362.38;;;32.03;31.77
10060;BME280;5069;49.306;8.636;2022-08-30T15:13:54;100361.88;;;32.29;31.70
10060;BME280;5069;49.306;8.636;2022-08-30T15:16:57;100358.44;;;32.41;30.94
10060;BME280;5069;49.306;8.636;2022-08-30T15:19:59;100356.88;;;32.54;30.35
10060;BME280;5069;49.306;8.636;2022-08-30T15:23:00;100354.81;;;32.34;30.87
10060;BME280;5069;49.306;8.636;2022-08-30T15:26:02;100358.50;;;32.48;30.30
10060;BME280;5069;49.306;8.636;2022-08-30T15:29:04;100351.84;;;32.51;30.66
10060;BME280;5069;49.306;8.636;2022-08-30T15:32:06;100352.44;;;32.31;30.37
10060;BME280;5069;49.306;8.636;2022-08-30T15:35:08;100350.16;;;32.14;30.55
10060;BME280;5069;49.306;8.636;2022-08-30T15:38:09;100350.00;;;32.36;31.33
10060;BME280;5069;49.306;8.636;2022-08-30T15:41:12;100355.84;;;32.55;30.97
10060;BME280;5069;49.306;8.636;2022-08-30T15:44:15;100358.97;;;32.52;30.89
10060;BME280;5069;49.306;8.636;2022-08-30T15:47:20;100354.00;;;32.19;30.39
10060;BME280;5069;49.306;8.636;2022-08-30T15:50:22;100355.63;;;31.99;30.68
10060;BME280;5069;49.306;8.636;2022-08-30T15:53:24;100348.63;;;31.61;32.26
10060;BME280;5069;49.306;8.636;2022-08-30T15:56:25;100347.72;;;31.45;31.68
10060;BME280;5069;49.306;8.636;2022-08-30T15:59:28;100343.28;;;31.44;31.80
10060;BME280;5069;49.306;8.636;2022-08-30T16:02:30;100338.91;;;31.43;31.19
10060;BME280;5069;49.306;8.636;2022-08-30T16:05:32;100336.88;;;31.60;31.54
10060;BME280;5069;49.306;8.636;2022-08-30T16:08:33;100334.97;;;31.75;31.53
10060;BME280;5069;49.306;8.636;2022-08-30T16:11:36;100327.53;;;31.84;31.02
10060;BME280;5069;49.306;8.636;2022-08-30T16:14:37;100327.59;;;32.05;30.58
10060;BME280;5069;49.306;8.636;2022-08-30T16:17:39;100325.09;;;31.89;30.60
10060;BME280;5069;49.306;8.636;2022-08-30T16:20:41;100326.44;;;31.78;30.58
10060;BME280;5069;49.306;8.636;2022-08-30T16:23:43;100328.88;;;31.58;30.70
10060;BME280;5069;49.306;8.636;2022-08-30T16:26:48;100324.59;;;31.56;30.51
10060;BME280;5069;49.306;8.636;2022-08-30T16:29:50;100327.91;;;31.51;30.79
10060;BME280;5069;49.306;8.636;2022-08-30T16:32:51;100331.09;;;31.40;30.68
10060;BME280;5069;49.306;8.636;2022-08-30T16:35:54;100332.59;;;31.28;31.74
10060;BME280;5069;49.306;8.636;2022-08-30T16:38:57;100335.78;;;31.17;31.65
10060;BME280;5069;49.306;8.636;2022-08-30T16:41:59;100334.16;;;31.08;31.53
10060;BME280;5069;49.306;8.636;2022-08-30T16:45:04;100334.28;;;30.92;31.43
10060;BME280;5069;49.306;8.636;2022-08-30T16:48:11;100325.84;;;30.87;31.68
10060;BME280;5069;49.306;8.636;2022-08-30T16:51:16;100325.91;;;30.78;32.34
10060;BME280;5069;49.306;8.636;2022-08-30T16:54:18;100318.22;;;30.59;31.83
10060;BME280;5069;49.306;8.636;2022-08-30T16:57:20;100318.41;;;30.35;32.15
10060;BME280;5069;49.306;8.636;2022-08-30T17:00:22;100318.09;;;30.30;32.30
10060;BME280;5069;49.306;8.636;2022-08-30T17:03:24;100315.13;;;30.17;32.99
10060;BME280;5069;49.306;8.636;2022-08-30T17:06:26;100315.59;;;30.20;32.91
10060;BME280;5069;49.306;8.636;2022-08-30T17:09:27;100320.19;;;30.20;32.62
10060;BME280;5069;49.306;8.636;2022-08-30T17:12:29;100321.41;;;30.17;32.68